Time;durP1;ratioP1;P1;durP2;ratioP2;P2;SDS_P1;SDS_P2;PMS_P1;PMS_P2;Temp;Humidity;BMP_temperature;BMP_pressure;BME280_temperature;BME280_humidity;BME280_pressure;Samples;Min_cycle;Max_cycle;Signal;HPM_P1;HPM_P2
2022/11/07 00:08:30;;;;;;;4.33;2.23;;;14.20;99.90;;;;;;7735752;77;26714;-54
2022/11/07 00:18:26;;;;;;;5.70;2.60;;;14.20;99.90;;;;;;7744965;76;26749;-56
2022/11/07 00:28:29;;;;;;;3.93;2.10;;;14.30;99.90;;;;;;7737886;77;26812;-52
2022/11/07 00:38:31;;;;;;;7.20;2.40;;;14.30;99.90;;;;;;7738741;77;26326;-55
2022/11/07 00:48:35;;;;;;;3.03;1.90;;;14.30;99.90;;;;;;7739291;77;26336;-54
2022/11/07 00:58:38;;;;;;;3.97;2.20;;;14.30;99.90;;;;;;7724978;77;26330;-56
2022/11/07 01:08:41;;;;;;;4.37;2.10;;;14.30;99.90;;;;;;7739696;76;26288;-55
2022/11/07 01:18:43;;;;;;;3.70;1.70;;;14.30;99.90;;;;;;7738833;77;26265;-55
2022/11/07 01:28:46;;;;;;;4.63;2.20;;;14.30;99.90;;;;;;7740647;76;26354;-58
2022/11/07 01:38:49;;;;;;;4.43;2.17;;;14.30;99.90;;;;;;7734751;77;26329;-55
2022/11/07 01:48:57;;;;;;;4.27;1.97;;;14.30;99.90;;;;;;7729216;77;26298;-55
2022/11/07 01:59:01;;;;;;;3.93;2.00;;;14.30;99.90;;;;;;7712678;76;26735;-56
2022/11/07 02:09:03;;;;;;;5.53;2.10;;;14.10;99.90;;;;;;7716187;77;26326;-54
2022/11/07 02:19:09;;;;;;;4.73;2.30;;;14.20;99.90;;;;;;7733485;77;26906;-55
2022/11/07 02:29:12;;;;;;;5.70;2.33;;;14.40;99.90;;;;;;7731644;76;26345;-58
2022/11/07 02:39:15;;;;;;;4.63;1.90;;;14.40;99.90;;;;;;7722650;77;26240;-53
2022/11/07 02:49:17;;;;;;;4.37;1.97;;;14.40;99.90;;;;;;7727187;75;26762;-55
2022/11/07 02:59:20;;;;;;;5.80;2.40;;;14.40;99.90;;;;;;7747029;77;26319;-53
2022/11/07 03:09:22;;;;;;;5.93;2.40;;;14.30;99.90;;;;;;7729285;77;26284;-57
2022/11/07 03:19:25;;;;;;;5.37;2.33;;;14.30;99.90;;;;;;7742457;77;26275;-56
2022/11/07 03:29:27;;;;;;;2.50;1.70;;;14.40;99.90;;;;;;7741873;77;26361;-56
2022/11/07 03:39:30;;;;;;;4.20;1.80;;;14.40;99.90;;;;;;7746540;77;26299;-57
2022/11/07 03:49:32;;;;;;;3.73;2.37;;;14.40;99.90;;;;;;7746648;77;26770;-57
2022/11/07 03:59:35;;;;;;;5.27;2.30;;;14.40;99.90;;;;;;7745436;77;27074;-57
2022/11/07 04:09:38;;;;;;;3.33;1.77;;;14.40;99.90;;;;;;7731363;75;26284;-55
2022/11/07 04:19:40;;;;;;;6.57;3.53;;;14.40;99.90;;;;;;7742461;75;26276;-56
2022/11/07 04:29:43;;;;;;;4.43;2.33;;;14.40;99.90;;;;;;7741597;77;26307;-58
2022/11/07 04:39:45;;;;;;;4.23;1.93;;;14.50;99.90;;;;;;7743819;77;26232;-57
2022/11/07 04:49:48;;;;;;;5.47;2.20;;;14.40;99.90;;;;;;7737620;77;26306;-57
2022/11/07 04:59:50;;;;;;;4.77;1.90;;;14.50;99.90;;;;;;7725460;77;26313;-56
2022/11/07 05:09:53;;;;;;;3.60;1.83;;;14.30;99.90;;;;;;7714923;77;26755;-54
2022/11/07 05:19:55;;;;;;;4.33;1.87;;;14.40;99.90;;;;;;7719800;77;26323;-54
2022/11/07 05:29:58;;;;;;;6.17;2.13;;;14.40;99.90;;;;;;7728472;75;26264;-55
2022/11/07 05:40:00;;;;;;;4.10;1.70;;;14.40;99.90;;;;;;7720500;77;26236;-55
2022/11/07 05:50:03;;;;;;;4.33;1.77;;;14.40;99.90;;;;;;7729561;77;26269;-56
2022/11/07 06:00:06;;;;;;;3.07;1.90;;;14.40;99.90;;;;;;7738208;77;26419;-57
2022/11/07 06:10:09;;;;;;;3.47;1.67;;;14.30;99.90;;;;;;7734960;75;26338;-56
2022/11/07 06:20:12;;;;;;;5.80;1.50;;;14.40;99.90;;;;;;7747590;77;26346;-55
2022/11/07 06:30:14;;;;;;;3.93;2.13;;;14.40;99.90;;;;;;7726659;77;27187;-55
2022/11/07 06:40:17;;;;;;;4.93;2.10;;;14.40;99.90;;;;;;7736526;77;26245;-56
2022/11/07 06:50:19;;;;;;;7.57;2.20;;;14.40;99.90;;;;;;7718788;77;26272;-56
2022/11/07 07:00:22;;;;;;;5.77;2.10;;;14.50;99.90;;;;;;7716027;77;26233;-56
2022/11/07 07:10:25;;;;;;;5.30;1.90;;;14.40;99.90;;;;;;7696221;75;26244;-56
2022/11/07 07:20:28;;;;;;;5.73;2.07;;;14.50;99.90;;;;;;7734979;75;26325;-59
2022/11/07 07:30:31;;;;;;;6.83;1.67;;;14.40;99.90;;;;;;7732696;76;26304;-56
2022/11/07 07:40:33;;;;;;;6.20;2.53;;;14.60;99.90;;;;;;7721179;76;26789;-56
2022/11/07 07:50:36;;;;;;;8.83;2.33;;;14.40;99.90;;;;;;7694719;76;26345;-57
2022/11/07 08:00:39;;;;;;;8.23;3.20;;;14.50;99.90;;;;;;7691829;75;26271;-53
2022/11/07 08:10:41;;;;;;;7.17;2.50;;;14.60;99.90;;;;;;7706782;76;26280;-56
2022/11/07 08:20:44;;;;;;;12.37;3.73;;;14.50;99.90;;;;;;7719845;75;26380;-55
2022/11/07 08:30:48;;;;;;;7.33;2.67;;;14.60;99.90;;;;;;7706738;75;26813;-55
2022/11/07 08:40:51;;;;;;;12.10;2.70;;;14.60;99.90;;;;;;7712013;75;26252;-57
2022/11/07 08:50:56;;;;;;;6.30;3.10;;;14.60;99.90;;;;;;7713864;77;27070;-58
2022/11/07 09:00:58;;;;;;;10.90;2.97;;;14.70;99.90;;;;;;7700924;77;26400;-55
2022/11/07 09:11:03;;;;;;;7.13;2.10;;;14.70;99.90;;;;;;7722460;77;26354;-52
2022/11/07 09:21:06;;;;;;;9.07;2.23;;;14.80;99.90;;;;;;7727012;75;26263;-54
2022/11/07 09:31:08;;;;;;;7.87;2.27;;;14.70;99.90;;;;;;7712086;77;26296;-55
2022/11/07 09:41:30;;;;;;;5.93;2.67;;;14.80;99.90;;;;;;7728237;75;26251;-56
2022/11/07 09:51:38;;;;;;;7.60;2.67;;;14.80;99.90;;;;;;7713936;75;26280;-59
2022/11/07 10:01:41;;;;;;;8.13;2.93;;;14.80;99.90;;;;;;7720934;75;26291;-56
2022/11/07 10:11:47;;;;;;;6.03;2.57;;;14.80;99.90;;;;;;7705161;77;26293;-53
2022/11/07 10:22:22;;;;;;;13.93;3.53;;;14.80;99.90;;;;;;7695320;75;26271;-55
2022/11/07 10:32:28;;;;;;;9.57;3.67;;;14.80;99.90;;;;;;7721738;75;26280;-55
2022/11/07 10:42:32;;;;;;;11.63;3.23;;;14.90;99.90;;;;;;7738165;75;26241;-55
2022/11/07 10:52:34;;;;;;;8.10;3.37;;;15.00;99.90;;;;;;7726766;75;26278;-57
2022/11/07 11:02:43;;;;;;;11.10;3.97;;;14.90;99.90;;;;;;7707161;75;26275;-55
2022/11/07 11:12:47;;;;;;;10.53;3.80;;;15.10;99.90;;;;;;7711963;75;26311;-55
2022/11/07 11:22:51;;;;;;;8.50;3.57;;;15.10;99.90;;;;;;7725983;75;26823;-59
2022/11/07 11:33:06;;;;;;;7.90;2.83;;;15.00;99.90;;;;;;7698192;77;26377;-54
2022/11/07 11:43:20;;;;;;;7.43;3.40;;;15.10;99.90;;;;;;7725822;76;26730;-56
2022/11/07 11:53:23;;;;;;;8.17;3.10;;;15.10;99.90;;;;;;7741899;75;26338;-53
2022/11/07 12:03:34;;;;;;;9.70;2.87;;;15.30;99.90;;;;;;7716022;77;26284;-56
2022/11/07 12:13:55;;;;;;;16.43;5.33;;;15.20;99.90;;;;;;7726670;75;26251;-55
2022/11/07 12:24:24;;;;;;;13.50;4.77;;;15.40;99.90;;;;;;7714742;75;26244;-55
2022/11/07 12:34:35;;;;;;;39.90;11.33;;;15.30;99.90;;;;;;7690794;77;26282;-56
2022/11/07 12:44:59;;;;;;;43.03;14.17;;;15.40;99.90;;;;;;7720826;75;26326;-55
2022/11/07 12:55:27;;;;;;;53.30;17.10;;;15.50;99.90;;;;;;7720126;75;26750;-56
2022/11/07 13:06:02;;;;;;;48.17;15.63;;;15.50;99.90;;;;;;7683672;75;27336;-53
2022/11/07 13:16:07;;;;;;;45.80;14.93;;;15.50;99.90;;;;;;7706302;75;26336;-55
2022/11/07 13:26:10;;;;;;;35.03;12.50;;;15.40;99.90;;;;;;7697894;76;26260;-56
2022/11/07 13:36:26;;;;;;;36.60;11.00;;;15.50;99.90;;;;;;7693278;77;26357;-57
2022/11/07 13:46:38;;;;;;;40.53;12.53;;;15.50;99.90;;;;;;7691879;75;26284;-57
2022/11/07 13:56:53;;;;;;;30.47;11.57;;;15.60;99.90;;;;;;7714684;75;26386;-58
2022/11/07 14:06:58;;;;;;;33.93;9.73;;;15.50;99.90;;;;;;7730983;77;26381;-58
2022/11/07 14:17:00;;;;;;;25.80;10.77;;;15.50;99.90;;;;;;7741202;77;26776;-56
2022/11/07 14:27:07;;;;;;;35.13;13.00;;;15.50;99.90;;;;;;7714963;75;26279;-57
2022/11/07 14:37:12;;;;;;;42.50;13.77;;;15.60;99.90;;;;;;7713449;75;26318;-55
2022/11/07 14:47:31;;;;;;;31.27;11.27;;;15.60;99.90;;;;;;7740454;75;26345;-55
2022/11/07 14:57:36;;;;;;;32.57;10.80;;;15.50;99.90;;;;;;7714793;75;26800;-55
2022/11/07 15:07:42;;;;;;;27.10;10.03;;;15.70;99.90;;;;;;7713775;75;26390;-54
2022/11/07 15:17:50;;;;;;;27.57;10.40;;;15.60;99.90;;;;;;7718688;75;26773;-54
2022/11/07 15:27:53;;;;;;;27.67;10.17;;;15.50;99.90;;;;;;7717876;75;26705;-53
2022/11/07 15:37:57;;;;;;;24.23;8.57;;;15.60;99.90;;;;;;7733110;75;26635;-53
2022/11/07 15:48:00;;;;;;;24.00;8.90;;;15.60;99.90;;;;;;7729118;75;26598;-56
2022/11/07 15:58:03;;;;;;;24.33;8.43;;;15.40;99.90;;;;;;7742790;75;26310;-57
2022/11/07 16:08:07;;;;;;;18.87;7.37;;;15.60;99.90;;;;;;7734246;75;26261;-56
2022/11/07 16:18:15;;;;;;;17.87;6.37;;;15.60;99.90;;;;;;7742029;75;26335;-58
2022/11/07 16:28:20;;;;;;;23.33;7.83;;;15.50;99.90;;;;;;7734331;75;26969;-56
2022/11/07 16:38:24;;;;;;;18.23;5.83;;;15.60;99.90;;;;;;7721310;75;26267;-56
2022/11/07 16:48:28;;;;;;;18.03;6.23;;;15.60;99.90;;;;;;7718918;75;26780;-56
2022/11/07 16:58:33;;;;;;;19.27;6.97;;;15.50;99.90;;;;;;7707190;75;26192;-56
2022/11/07 17:08:40;;;;;;;23.27;6.63;;;15.70;99.90;;;;;;7708013;75;26833;-59
2022/11/07 17:18:45;;;;;;;23.47;7.27;;;15.70;99.90;;;;;;7721047;75;26268;-56
2022/11/07 17:28:48;;;;;;;21.30;7.97;;;15.60;99.90;;;;;;7715865;77;26331;-57
2022/11/07 17:38:51;;;;;;;23.70;8.73;;;15.50;99.90;;;;;;7715909;75;26294;-57
2022/11/07 17:48:55;;;;;;;15.33;6.30;;;15.50;99.90;;;;;;7695596;76;26267;-57
2022/11/07 17:59:00;;;;;;;15.40;6.13;;;15.60;99.90;;;;;;7696670;77;26839;-58
2022/11/07 18:09:05;;;;;;;17.63;5.70;;;15.50;99.90;;;;;;7682960;75;26344;-58
2022/11/07 18:19:08;;;;;;;14.00;5.30;;;15.60;99.90;;;;;;7707251;77;26776;-56
2022/11/07 18:29:13;;;;;;;14.50;5.37;;;15.60;99.90;;;;;;7715512;77;26373;-58
2022/11/07 18:39:20;;;;;;;12.60;4.83;;;15.50;99.90;;;;;;7724697;77;26342;-58
2022/11/07 18:49:23;;;;;;;11.90;4.33;;;15.40;99.90;;;;;;7695207;75;26361;-58
2022/11/07 18:59:26;;;;;;;12.10;4.10;;;15.50;99.90;;;;;;7691596;77;26255;-58
2022/11/07 19:09:30;;;;;;;11.33;3.87;;;15.50;99.90;;;;;;7717153;77;26259;-56
2022/11/07 19:19:34;;;;;;;11.87;4.03;;;15.50;99.90;;;;;;7717074;75;26365;-58
2022/11/07 19:29:36;;;;;;;11.57;4.50;;;15.60;99.90;;;;;;7703748;77;27373;-58
2022/11/07 19:39:39;;;;;;;10.33;3.30;;;15.60;99.90;;;;;;7701020;75;26276;-58
2022/11/07 19:49:41;;;;;;;8.83;3.60;;;15.50;99.90;;;;;;7715256;75;26322;-57
2022/11/07 19:59:44;;;;;;;8.63;3.03;;;15.50;99.90;;;;;;7712925;75;26337;-58
2022/11/07 20:09:46;;;;;;;10.00;4.37;;;15.50;99.90;;;;;;7708286;75;26259;-58
2022/11/07 20:19:49;;;;;;;8.73;3.00;;;15.40;99.90;;;;;;7717896;77;26284;-58
2022/11/07 20:29:52;;;;;;;9.77;3.30;;;15.40;99.90;;;;;;7720464;75;26811;-56
2022/11/07 20:39:54;;;;;;;6.93;3.27;;;15.30;99.90;;;;;;7696552;77;26327;-55
2022/11/07 20:49:57;;;;;;;11.27;4.97;;;15.50;99.90;;;;;;7697362;77;26268;-55
2022/11/07 20:59:59;;;;;;;10.63;3.57;;;15.30;99.90;;;;;;7701502;75;26377;-55
2022/11/07 21:10:02;;;;;;;8.73;3.67;;;15.30;99.90;;;;;;7701092;77;26261;-54
2022/11/07 21:20:06;;;;;;;7.37;3.43;;;15.50;99.90;;;;;;7713205;75;26287;-57
2022/11/07 21:30:09;;;;;;;10.57;4.47;;;15.50;99.90;;;;;;7726081;75;27792;-56
2022/11/07 21:40:12;;;;;;;11.97;3.67;;;15.40;99.90;;;;;;7704280;75;26259;-56
2022/11/07 21:50:17;;;;;;;7.97;3.30;;;15.60;99.90;;;;;;7719919;76;26336;-56
2022/11/07 22:00:19;;;;;;;6.10;3.00;;;15.50;99.90;;;;;;7701779;75;26364;-57
2022/11/07 22:10:21;;;;;;;8.53;3.20;;;15.50;99.90;;;;;;7712520;75;26352;-54
2022/11/07 22:20:24;;;;;;;5.83;2.90;;;15.40;99.90;;;;;;7701997;77;26315;-58
2022/11/07 22:30:26;;;;;;;7.17;3.17;;;15.40;99.90;;;;;;7692763;75;26376;-58
2022/11/07 22:40:29;;;;;;;14.17;4.07;;;15.50;99.90;;;;;;7709936;75;26329;-52
2022/11/07 22:50:32;;;;;;;9.90;3.27;;;15.40;99.90;;;;;;7459236;78;26781;-55
2022/11/07 23:00:34;;;;;;;10.17;3.20;;;15.60;99.90;;;;;;7438185;78;26327;-52
2022/11/07 23:10:37;;;;;;;9.57;3.20;;;15.50;99.90;;;;;;7452291;79;26818;-52
2022/11/07 23:31:00;;;;;;;4.83;2.63;;;15.60;99.90;;;;;;7414917;78;27449;-52
2022/11/07 23:41:08;;;;;;;6.77;2.83;;;15.40;99.90;;;;;;7419885;78;26363;-52
2022/11/07 23:51:12;;;;;;;5.87;2.80;;;15.50;99.90;;;;;;7463490;78;26805;-52
